sensor_id;sensor_type;location;lat;lon;timestamp;pressure;altitude;pressure_sealevel;temperature;humidity
40838;BME280;29632;49.168;9.848;2023-04-28T00:00:48;96674.66;;;15.41;38.47
40838;BME280;29632;49.168;9.848;2023-04-28T00:03:14;96670.44;;;15.40;38.26
40838;BME280;29632;49.168;9.848;2023-04-28T00:05:40;96675.69;;;15.40;38.64
40838;BME280;29632;49.168;9.848;2023-04-28T00:08:06;96667.16;;;15.38;38.64
40838;BME280;29632;49.168;9.848;2023-04-28T00:10:32;96671.59;;;15.37;38.81
40838;BME280;29632;49.168;9.848;2023-04-28T00:12:58;96666.72;;;15.34;38.59
40838;BME280;29632;49.168;9.848;2023-04-28T00:15:23;96663.59;;;15.30;38.55
40838;BME280;29632;49.168;9.848;2023-04-28T00:17:49;96658.72;;;15.27;38.81
40838;BME280;29632;49.168;9.848;2023-04-28T00:20:15;96657.09;;;15.26;38.57
40838;BME280;29632;49.168;9.848;2023-04-28T00:22:40;96650.84;;;15.27;38.75
40838;BME280;29632;49.168;9.848;2023-04-28T00:25:06;96641.34;;;15.26;38.67
40838;BME280;29632;49.168;9.848;2023-04-28T00:27:33;96642.16;;;15.27;38.87
40838;BME280;29632;49.168;9.848;2023-04-28T00:29:59;96632.50;;;15.27;38.83
40838;BME280;29632;49.168;9.848;2023-04-28T00:32:25;96631.47;;;15.28;38.80
40838;BME280;29632;49.168;9.848;2023-04-28T00:34:50;96629.69;;;15.29;38.73
40838;BME280;29632;49.168;9.848;2023-04-28T00:37:18;96633.13;;;15.29;38.78
40838;BME280;29632;49.168;9.848;2023-04-28T00:39:44;96632.31;;;15.29;38.76
40838;BME280;29632;49.168;9.848;2023-04-28T00:42:13;96636.56;;;15.30;38.79
40838;BME280;29632;49.168;9.848;2023-04-28T00:44:39;96628.69;;;15.30;39.00
40838;BME280;29632;49.168;9.848;2023-04-28T00:47:07;96627.69;;;15.31;38.71
40838;BME280;29632;49.168;9.848;2023-04-28T00:49:32;96632.78;;;15.33;38.79
40838;BME280;29632;49.168;9.848;2023-04-28T00:52:00;96629.13;;;15.34;39.08
40838;BME280;29632;49.168;9.848;2023-04-28T00:54:29;96626.50;;;15.34;38.99
40838;BME280;29632;49.168;9.848;2023-04-28T00:56:55;96625.53;;;15.35;38.79
40838;BME280;29632;49.168;9.848;2023-04-28T00:59:21;96623.72;;;15.35;38.81
40838;BME280;29632;49.168;9.848;2023-04-28T01:01:47;96617.50;;;15.36;38.92
40838;BME280;29632;49.168;9.848;2023-04-28T01:04:14;96620.91;;;15.37;39.06
40838;BME280;29632;49.168;9.848;2023-04-28T01:06:41;96612.06;;;15.38;39.04
40838;BME280;29632;49.168;9.848;2023-04-28T01:09:07;96616.13;;;15.40;38.97
40838;BME280;29632;49.168;9.848;2023-04-28T01:11:33;96629.25;;;15.40;39.04
40838;BME280;29632;49.168;9.848;2023-04-28T01:13:59;96623.38;;;15.38;38.96
40838;BME280;29632;49.168;9.848;2023-04-28T01:16:24;96620.75;;;15.38;38.98
40838;BME280;29632;49.168;9.848;2023-04-28T01:18:51;96624.00;;;15.40;39.21
40838;BME280;29632;49.168;9.848;2023-04-28T01:21:27;96613.34;;;15.42;39.14
40838;BME280;29632;49.168;9.848;2023-04-28T01:23:57;96621.84;;;15.44;39.06
40838;BME280;29632;49.168;9.848;2023-04-28T01:26:23;96611.34;;;15.44;39.17
40838;BME280;29632;49.168;9.848;2023-04-28T01:28:49;96615.44;;;15.46;39.05
40838;BME280;29632;49.168;9.848;2023-04-28T01:31:15;96617.03;;;15.47;38.90
40838;BME280;29632;49.168;9.848;2023-04-28T01:33:41;96618.69;;;15.48;39.23
40838;BME280;29632;49.168;9.848;2023-04-28T01:36:06;96604.56;;;15.49;39.31
40838;BME280;29632;49.168;9.848;2023-04-28T01:38:32;96613.91;;;15.52;39.28
40838;BME280;29632;49.168;9.848;2023-04-28T01:40:58;96607.84;;;15.52;39.39
40838;BME280;29632;49.168;9.848;2023-04-28T01:43:24;96598.16;;;15.52;39.07
40838;BME280;29632;49.168;9.848;2023-04-28T01:45:49;96581.78;;;15.50;39.39
40838;BME280;29632;49.168;9.848;2023-04-28T01:48:16;96587.19;;;15.48;39.33
40838;BME280;29632;49.168;9.848;2023-04-28T01:50:41;96586.75;;;15.45;39.52
40838;BME280;29632;49.168;9.848;2023-04-28T01:53:07;96578.88;;;15.45;39.12
40838;BME280;29632;49.168;9.848;2023-04-28T01:55:33;96583.94;;;15.46;39.29
40838;BME280;29632;49.168;9.848;2023-04-28T01:57:58;96584.75;;;15.47;39.54
40838;BME280;29632;49.168;9.848;2023-04-28T02:00:24;96584.13;;;15.45;39.39
40838;BME280;29632;49.168;9.848;2023-04-28T02:02:50;96579.84;;;15.44;39.68
40838;BME280;29632;49.168;9.848;2023-04-28T02:05:15;96570.81;;;15.46;39.53
40838;BME280;29632;49.168;9.848;2023-04-28T02:07:41;96574.06;;;15.48;39.68
40838;BME280;29632;49.168;9.848;2023-04-28T02:10:07;96579.94;;;15.51;39.47
40838;BME280;29632;49.168;9.848;2023-04-28T02:12:33;96582.22;;;15.54;39.51
40838;BME280;29632;49.168;9.848;2023-04-28T02:14:58;96571.56;;;15.55;39.63
40838;BME280;29632;49.168;9.848;2023-04-28T02:17:25;96572.00;;;15.59;39.42
40838;BME280;29632;49.168;9.848;2023-04-28T02:19:54;96572.63;;;15.61;39.46
40838;BME280;29632;49.168;9.848;2023-04-28T02:22:21;96563.13;;;15.60;39.45
40838;BME280;29632;49.168;9.848;2023-04-28T02:24:47;96561.13;;;15.62;39.42
40838;BME280;29632;49.168;9.848;2023-04-28T02:27:12;96559.97;;;15.64;39.43
40838;BME280;29632;49.168;9.848;2023-04-28T02:29:38;96563.22;;;15.66;39.39
40838;BME280;29632;49.168;9.848;2023-04-28T02:32:04;96550.72;;;15.68;39.50
40838;BME280;29632;49.168;9.848;2023-04-28T02:34:29;96563.47;;;15.72;39.58
40838;BME280;29632;49.168;9.848;2023-04-28T02:36:55;96554.41;;;15.74;39.48
40838;BME280;29632;49.168;9.848;2023-04-28T02:39:21;96549.84;;;15.76;39.57
40838;BME280;29632;49.168;9.848;2023-04-28T02:41:50;96548.03;;;15.77;39.67
40838;BME280;29632;49.168;9.848;2023-04-28T02:44:16;96547.06;;;15.78;39.61
40838;BME280;29632;49.168;9.848;2023-04-28T02:46:42;96543.41;;;15.79;39.61
40838;BME280;29632;49.168;9.848;2023-04-28T02:49:07;96539.81;;;15.80;39.63
40838;BME280;29632;49.168;9.848;2023-04-28T02:51:33;96545.84;;;15.80;39.58
40838;BME280;29632;49.168;9.848;2023-04-28T02:53:59;96547.69;;;15.80;39.70
40838;BME280;29632;49.168;9.848;2023-04-28T02:56:25;96539.81;;;15.80;39.85
40838;BME280;29632;49.168;9.848;2023-04-28T02:58:51;96541.41;;;15.81;39.71
40838;BME280;29632;49.168;9.848;2023-04-28T03:01:17;96535.19;;;15.82;39.78
40838;BME280;29632;49.168;9.848;2023-04-28T03:03:42;96539.41;;;15.83;39.71
40838;BME280;29632;49.168;9.848;2023-04-28T03:06:08;96538.44;;;15.84;39.79
40838;BME280;29632;49.168;9.848;2023-04-28T03:08:34;96526.94;;;15.85;40.15
40838;BME280;29632;49.168;9.848;2023-04-28T03:10:59;96536.44;;;15.86;39.98
40838;BME280;29632;49.168;9.848;2023-04-28T03:13:25;96531.97;;;15.86;39.84
40838;BME280;29632;49.168;9.848;2023-04-28T03:15:51;96535.19;;;15.82;40.06
40838;BME280;29632;49.168;9.848;2023-04-28T03:18:17;96539.63;;;15.81;39.91
40838;BME280;29632;49.168;9.848;2023-04-28T03:20:43;96543.84;;;15.82;39.86
40838;BME280;29632;49.168;9.848;2023-04-28T03:23:09;96540.59;;;15.80;40.14
40838;BME280;29632;49.168;9.848;2023-04-28T03:25:34;96531.47;;;15.76;40.19
40838;BME280;29632;49.168;9.848;2023-04-28T03:28:00;96532.47;;;15.75;40.15
40838;BME280;29632;49.168;9.848;2023-04-28T03:30:26;96529.03;;;15.75;40.18
40838;BME280;29632;49.168;9.848;2023-04-28T03:32:52;96523.13;;;15.73;40.30
40838;BME280;29632;49.168;9.848;2023-04-28T03:35:17;96515.25;;;15.73;40.08
40838;BME280;29632;49.168;9.848;2023-04-28T03:37:43;96523.13;;;15.73;40.03
40838;BME280;29632;49.168;9.848;2023-04-28T03:40:09;96519.34;;;15.75;40.29
40838;BME280;29632;49.168;9.848;2023-04-28T03:42:35;96514.88;;;15.76;40.14
40838;BME280;29632;49.168;9.848;2023-04-28T03:45:01;96513.91;;;15.77;40.12
40838;BME280;29632;49.168;9.848;2023-04-28T03:47:26;96518.97;;;15.78;40.18
40838;BME280;29632;49.168;9.848;2023-04-28T03:49:52;96517.16;;;15.79;40.40
40838;BME280;29632;49.168;9.848;2023-04-28T03:52:18;96514.34;;;15.80;40.27
40838;BME280;29632;49.168;9.848;2023-04-28T03:54:44;96514.16;;;15.82;40.14
40838;BME280;29632;49.168;9.848;2023-04-28T03:57:10;96511.38;;;15.83;40.29
40838;BME280;29632;49.168;9.848;2023-04-28T03:59:36;96514.00;;;15.83;40.44
40838;BME280;29632;49.168;9.848;2023-04-28T04:02:02;96507.72;;;15.84;40.34
40838;BME280;29632;49.168;9.848;2023-04-28T04:04:28;96506.75;;;15.85;40.34
40838;BME280;29632;49.168;9.848;2023-04-28T04:06:54;96511.63;;;15.89;40.56
40838;BME280;29632;49.168;9.848;2023-04-28T04:09:20;96511.44;;;15.90;40.37
40838;BME280;29632;49.168;9.848;2023-04-28T04:11:45;96501.75;;;15.91;40.14
40838;BME280;29632;49.168;9.848;2023-04-28T04:14:11;96499.31;;;15.89;40.28
40838;BME280;29632;49.168;9.848;2023-04-28T04:16:37;96501.13;;;15.89;40.25
40838;BME280;29632;49.168;9.848;2023-04-28T04:19:03;96496.06;;;15.87;40.46
40838;BME280;29632;49.168;9.848;2023-04-28T04:21:28;96499.66;;;15.86;40.54
40838;BME280;29632;49.168;9.848;2023-04-28T04:23:54;96502.47;;;15.84;40.56
40838;BME280;29632;49.168;9.848;2023-04-28T04:26:20;96496.59;;;15.82;40.54
40838;BME280;29632;49.168;9.848;2023-04-28T04:28:46;96503.66;;;15.82;40.47
40838;BME280;29632;49.168;9.848;2023-04-28T04:31:11;96493.34;;;15.80;40.62
40838;BME280;29632;49.168;9.848;2023-04-28T04:33:37;96490.09;;;15.78;40.60
40838;BME280;29632;49.168;9.848;2023-04-28T04:36:03;96491.91;;;15.78;40.73
40838;BME280;29632;49.168;9.848;2023-04-28T04:38:29;96494.31;;;15.79;40.80
40838;BME280;29632;49.168;9.848;2023-04-28T04:40:55;96485.81;;;15.77;40.72
40838;BME280;29632;49.168;9.848;2023-04-28T04:43:21;96493.97;;;15.82;40.66
40838;BME280;29632;49.168;9.848;2023-04-28T04:45:46;96490.19;;;15.85;40.55
40838;BME280;29632;49.168;9.848;2023-04-28T04:48:12;96488.19;;;15.87;40.85
40838;BME280;29632;49.168;9.848;2023-04-28T04:50:39;96489.78;;;15.88;40.63
40838;BME280;29632;49.168;9.848;2023-04-28T04:53:05;96483.38;;;15.91;40.78
40838;BME280;29632;49.168;9.848;2023-04-28T04:55:31;96485.81;;;15.92;40.72
40838;BME280;29632;49.168;9.848;2023-04-28T04:57:56;96483.00;;;15.94;40.77
40838;BME280;29632;49.168;9.848;2023-04-28T05:00:22;96481.38;;;15.93;40.74
40838;BME280;29632;49.168;9.848;2023-04-28T05:02:48;96476.28;;;15.91;40.86
40838;BME280;29632;49.168;9.848;2023-04-28T05:05:13;96473.66;;;15.91;40.96
40838;BME280;29632;49.168;9.848;2023-04-28T05:07:39;96480.56;;;15.92;40.93
40838;BME280;29632;49.168;9.848;2023-04-28T05:10:05;96484.19;;;15.91;40.89
40838;BME280;29632;49.168;9.848;2023-04-28T05:12:31;96474.47;;;15.92;41.01
40838;BME280;29632;49.168;9.848;2023-04-28T05:14:57;96462.97;;;15.93;41.01
40838;BME280;29632;49.168;9.848;2023-04-28T05:17:23;96465.59;;;15.93;41.11
40838;BME280;29632;49.168;9.848;2023-04-28T05:19:49;96466.41;;;15.93;41.05
40838;BME280;29632;49.168;9.848;2023-04-28T05:22:14;96479.38;;;15.95;41.08
40838;BME280;29632;49.168;9.848;2023-04-28T05:24:40;96480.00;;;15.97;40.73
40838;BME280;29632;49.168;9.848;2023-04-28T05:27:06;96460.44;;;15.99;41.15
40838;BME280;29632;49.168;9.848;2023-04-28T05:29:31;96478.19;;;15.97;41.19
40838;BME280;29632;49.168;9.848;2023-04-28T05:31:57;96476.75;;;15.95;41.20
40838;BME280;29632;49.168;9.848;2023-04-28T05:34:23;96470.88;;;15.93;40.99
40838;BME280;29632;49.168;9.848;2023-04-28T05:36:49;96462.00;;;15.94;41.20
40838;BME280;29632;49.168;9.848;2023-04-28T05:39:14;96469.88;;;15.94;41.12
40838;BME280;29632;49.168;9.848;2023-04-28T05:41:40;96463.16;;;15.91;41.36
40838;BME280;29632;49.168;9.848;2023-04-28T05:44:05;96459.91;;;15.89;41.26
40838;BME280;29632;49.168;9.848;2023-04-28T05:46:31;96456.31;;;15.90;41.43
40838;BME280;29632;49.168;9.848;2023-04-28T05:48:57;96455.47;;;15.90;41.22
40838;BME280;29632;49.168;9.848;2023-04-28T05:51:22;96446.59;;;15.91;41.54
40838;BME280;29632;49.168;9.848;2023-04-28T05:53:48;96456.94;;;15.92;41.27
40838;BME280;29632;49.168;9.848;2023-04-28T05:56:14;96463.59;;;15.95;41.41
40838;BME280;29632;49.168;9.848;2023-04-28T05:58:40;96471.94;;;15.98;41.38
40838;BME280;29632;49.168;9.848;2023-04-28T06:01:07;96457.81;;;15.99;41.42
40838;BME280;29632;49.168;9.848;2023-04-28T06:03:32;96466.50;;;16.00;41.37
40838;BME280;29632;49.168;9.848;2023-04-28T06:05:58;96464.66;;;16.00;41.24
40838;BME280;29632;49.168;9.848;2023-04-28T06:08:23;96469.91;;;16.00;41.57
40838;BME280;29632;49.168;9.848;2023-04-28T06:10:49;96471.13;;;15.98;41.45
40838;BME280;29632;49.168;9.848;2023-04-28T06:13:15;96460.34;;;15.93;41.61
40838;BME280;29632;49.168;9.848;2023-04-28T06:15:40;96462.34;;;15.91;41.69
40838;BME280;29632;49.168;9.848;2023-04-28T06:18:06;96451.06;;;15.90;41.48
40838;BME280;29632;49.168;9.848;2023-04-28T06:20:34;96459.72;;;15.91;41.73
40838;BME280;29632;49.168;9.848;2023-04-28T06:23:00;96457.91;;;15.91;41.54
40838;BME280;29632;49.168;9.848;2023-04-28T06:25:28;96453.69;;;15.90;41.71
40838;BME280;29632;49.168;9.848;2023-04-28T06:27:53;96456.31;;;15.90;41.73
40838;BME280;29632;49.168;9.848;2023-04-28T06:30:21;96459.28;;;15.87;41.86
40838;BME280;29632;49.168;9.848;2023-04-28T06:32:47;96457.22;;;15.82;42.01
40838;BME280;29632;49.168;9.848;2023-04-28T06:35:14;96456.13;;;15.77;42.07
40838;BME280;29632;49.168;9.848;2023-04-28T06:37:39;96452.03;;;15.74;42.00
40838;BME280;29632;49.168;9.848;2023-04-28T06:40:06;96452.41;;;15.71;42.28
40838;BME280;29632;49.168;9.848;2023-04-28T06:42:32;96461.47;;;15.68;42.26
40838;BME280;29632;49.168;9.848;2023-04-28T06:44:58;96462.28;;;15.69;41.96
40838;BME280;29632;49.168;9.848;2023-04-28T06:47:23;96463.72;;;15.72;42.17
40838;BME280;29632;49.168;9.848;2023-04-28T06:49:49;96476.16;;;15.78;42.15
40838;BME280;29632;49.168;9.848;2023-04-28T06:52:16;96483.47;;;15.82;41.95
40838;BME280;29632;49.168;9.848;2023-04-28T06:54:41;96481.28;;;15.86;41.99
40838;BME280;29632;49.168;9.848;2023-04-28T06:57:07;96480.94;;;15.89;42.16
40838;BME280;29632;49.168;9.848;2023-04-28T06:59:33;96471.66;;;15.93;41.95
40838;BME280;29632;49.168;9.848;2023-04-28T07:01:59;96473.94;;;15.96;42.13
40838;BME280;29632;49.168;9.848;2023-04-28T07:04:25;96479.63;;;16.00;42.20
40838;BME280;29632;49.168;9.848;2023-04-28T07:06:51;96486.34;;;16.02;42.11
40838;BME280;29632;49.168;9.848;2023-04-28T07:09:17;96496.28;;;16.07;42.18
40838;BME280;29632;49.168;9.848;2023-04-28T07:11:43;96493.47;;;16.09;42.15
40838;BME280;29632;49.168;9.848;2023-04-28T07:14:09;96487.84;;;16.12;42.18
40838;BME280;29632;49.168;9.848;2023-04-28T07:16:35;96482.22;;;16.15;42.30
40838;BME280;29632;49.168;9.848;2023-04-28T07:19:00;96463.66;;;16.16;42.30
40838;BME280;29632;49.168;9.848;2023-04-28T07:21:26;96436.53;;;16.16;42.27
40838;BME280;29632;49.168;9.848;2023-04-28T07:23:55;96437.75;;;16.13;42.33
40838;BME280;29632;49.168;9.848;2023-04-28T07:26:22;96452.06;;;16.11;42.45
40838;BME280;29632;49.168;9.848;2023-04-28T07:28:48;96451.44;;;16.09;42.37
40838;BME280;29632;49.168;9.848;2023-04-28T07:31:13;96459.06;;;16.03;42.70
40838;BME280;29632;49.168;9.848;2023-04-28T07:33:39;96457.00;;;15.99;42.71
40838;BME280;29632;49.168;9.848;2023-04-28T07:36:06;96457.56;;;15.94;42.69
40838;BME280;29632;49.168;9.848;2023-04-28T07:38:35;96468.41;;;15.91;42.61
40838;BME280;29632;49.168;9.848;2023-04-28T07:41:02;96459.72;;;15.91;42.82
40838;BME280;29632;49.168;9.848;2023-04-28T07:43:28;96455.03;;;15.86;42.84
40838;BME280;29632;49.168;9.848;2023-04-28T07:45:54;96459.66;;;15.84;43.02
40838;BME280;29632;49.168;9.848;2023-04-28T07:48:20;96447.50;;;15.83;42.97
40838;BME280;29632;49.168;9.848;2023-04-28T07:50:46;96451.41;;;15.87;42.97
40838;BME280;29632;49.168;9.848;2023-04-28T07:53:11;96452.66;;;15.91;42.93
40838;BME280;29632;49.168;9.848;2023-04-28T07:55:37;96458.34;;;15.95;43.04
40838;BME280;29632;49.168;9.848;2023-04-28T07:58:03;96461.41;;;15.98;42.78
40838;BME280;29632;49.168;9.848;2023-04-28T08:00:28;96463.88;;;16.00;42.81
40838;BME280;29632;49.168;9.848;2023-04-28T08:02:54;96459.84;;;16.04;43.02
40838;BME280;29632;49.168;9.848;2023-04-28T08:05:22;96454.06;;;16.09;42.85
40838;BME280;29632;49.168;9.848;2023-04-28T08:07:47;96454.13;;;16.15;42.79
40838;BME280;29632;49.168;9.848;2023-04-28T08:10:13;96458.84;;;16.20;42.73
40838;BME280;29632;49.168;9.848;2023-04-28T08:12:39;96450.38;;;16.24;42.81
40838;BME280;29632;49.168;9.848;2023-04-28T08:15:06;96445.38;;;16.30;42.71
40838;BME280;29632;49.168;9.848;2023-04-28T08:17:31;96446.63;;;16.34;42.74
40838;BME280;29632;49.168;9.848;2023-04-28T08:19:57;96446.44;;;16.35;42.83
40838;BME280;29632;49.168;9.848;2023-04-28T08:22:23;96454.75;;;16.39;42.77
40838;BME280;29632;49.168;9.848;2023-04-28T08:24:48;96448.31;;;16.41;42.77
40838;BME280;29632;49.168;9.848;2023-04-28T08:27:14;96452.59;;;16.42;42.75
40838;BME280;29632;49.168;9.848;2023-04-28T08:29:40;96445.31;;;16.45;42.89
40838;BME280;29632;49.168;9.848;2023-04-28T08:32:06;96435.59;;;16.45;42.89
40838;BME280;29632;49.168;9.848;2023-04-28T08:34:32;96438.41;;;16.43;42.89
40838;BME280;29632;49.168;9.848;2023-04-28T08:36:58;96451.75;;;16.42;42.92
40838;BME280;29632;49.168;9.848;2023-04-28T08:39:24;96448.31;;;16.41;43.03
40838;BME280;29632;49.168;9.848;2023-04-28T08:41:51;96443.06;;;16.41;43.02
40838;BME280;29632;49.168;9.848;2023-04-28T08:44:17;96442.88;;;16.43;43.16
40838;BME280;29632;49.168;9.848;2023-04-28T08:46:44;96432.19;;;16.45;43.27
40838;BME280;29632;49.168;9.848;2023-04-28T08:49:19;96433.97;;;16.44;43.11
40838;BME280;29632;49.168;9.848;2023-04-28T08:51:58;96432.34;;;16.43;43.20
40838;BME280;29632;49.168;9.848;2023-04-28T08:54:32;96435.97;;;16.42;43.38
40838;BME280;29632;49.168;9.848;2023-04-28T08:57:00;96462.25;;;16.42;43.24
40838;BME280;29632;49.168;9.848;2023-04-28T08:59:26;96464.09;;;16.41;43.41
40838;BME280;29632;49.168;9.848;2023-04-28T09:01:52;96466.53;;;16.43;43.52
40838;BME280;29632;49.168;9.848;2023-04-28T09:04:18;96467.31;;;16.43;43.51
40838;BME280;29632;49.168;9.848;2023-04-28T09:06:44;96476.66;;;16.46;43.50
40838;BME280;29632;49.168;9.848;2023-04-28T09:09:29;96472.03;;;16.48;43.65
40838;BME280;29632;49.168;9.848;2023-04-28T09:12:02;96475.09;;;16.52;43.73
40838;BME280;29632;49.168;9.848;2023-04-28T09:14:33;96476.53;;;16.54;43.48
40838;BME280;29632;49.168;9.848;2023-04-28T09:17:00;96477.13;;;16.56;43.57
40838;BME280;29632;49.168;9.848;2023-04-28T09:19:37;96467.66;;;16.55;43.70
40838;BME280;29632;49.168;9.848;2023-04-28T09:22:03;96474.50;;;16.56;43.64
40838;BME280;29632;49.168;9.848;2023-04-28T09:24:33;96468.44;;;16.56;43.83
40838;BME280;29632;49.168;9.848;2023-04-28T09:27:01;96462.38;;;16.55;43.80
40838;BME280;29632;49.168;9.848;2023-04-28T09:29:28;96458.75;;;16.56;43.93
40838;BME280;29632;49.168;9.848;2023-04-28T09:31:54;96461.38;;;16.56;43.98
40838;BME280;29632;49.168;9.848;2023-04-28T09:34:44;96453.28;;;16.58;43.89
40838;BME280;29632;49.168;9.848;2023-04-28T09:37:15;96443.44;;;16.60;43.90
40838;BME280;29632;49.168;9.848;2023-04-28T09:39:43;96443.84;;;16.64;43.81
40838;BME280;29632;49.168;9.848;2023-04-28T09:42:09;96455.97;;;16.65;43.87
40838;BME280;29632;49.168;9.848;2023-04-28T09:44:34;96457.44;;;16.67;44.05
40838;BME280;29632;49.168;9.848;2023-04-28T09:47:00;96443.69;;;16.72;44.04
40838;BME280;29632;49.168;9.848;2023-04-28T09:49:56;96442.34;;;16.76;43.98
40838;BME280;29632;49.168;9.848;2023-04-28T09:52:23;96441.94;;;16.79;44.26
40838;BME280;29632;49.168;9.848;2023-04-28T09:54:53;96432.84;;;16.82;44.31
40838;BME280;29632;49.168;9.848;2023-04-28T09:57:19;96438.59;;;16.85;44.38
40838;BME280;29632;49.168;9.848;2023-04-28T09:59:48;96448.91;;;16.87;44.23
40838;BME280;29632;49.168;9.848;2023-04-28T10:02:18;96446.28;;;16.87;44.28
40838;BME280;29632;49.168;9.848;2023-04-28T10:04:45;96440.00;;;16.88;44.58
40838;BME280;29632;49.168;9.848;2023-04-28T10:07:12;96446.91;;;16.89;44.51
40838;BME280;29632;49.168;9.848;2023-04-28T10:09:39;96444.44;;;16.87;44.66
40838;BME280;29632;49.168;9.848;2023-04-28T10:12:15;96446.91;;;16.89;44.90
40838;BME280;29632;49.168;9.848;2023-04-28T10:14:41;96439.81;;;16.89;44.81
40838;BME280;29632;49.168;9.848;2023-04-28T10:17:07;96434.97;;;16.93;45.02
40838;BME280;29632;49.168;9.848;2023-04-28T10:19:36;96432.41;;;16.99;45.09
40838;BME280;29632;49.168;9.848;2023-04-28T10:27:29;96438.16;;;17.16;45.03
40838;BME280;29632;49.168;9.848;2023-04-28T10:30:28;96428.88;;;17.21;45.10
40838;BME280;29632;49.168;9.848;2023-04-28T10:38:08;96433.66;;;17.39;45.29
40838;BME280;29632;49.168;9.848;2023-04-28T10:40:35;96433.66;;;17.45;45.19
40838;BME280;29632;49.168;9.848;2023-04-28T10:43:02;96428.41;;;17.52;45.28
40838;BME280;29632;49.168;9.848;2023-04-28T10:58:56;96435.91;;;17.97;45.23
40838;BME280;29632;49.168;9.848;2023-04-28T11:01:29;96440.38;;;18.03;45.14
40838;BME280;29632;49.168;9.848;2023-04-28T11:08:55;96441.59;;;18.14;45.47
40838;BME280;29632;49.168;9.848;2023-04-28T11:11:26;96442.84;;;18.18;45.31
40838;BME280;29632;49.168;9.848;2023-04-28T11:13:53;96445.09;;;18.21;45.57
40838;BME280;29632;49.168;9.848;2023-04-28T11:16:21;96443.06;;;18.23;45.59
40838;BME280;29632;49.168;9.848;2023-04-28T11:18:55;96444.47;;;18.25;45.68
40838;BME280;29632;49.168;9.848;2023-04-28T11:21:23;96439.00;;;18.27;45.62
40838;BME280;29632;49.168;9.848;2023-04-28T11:23:49;96448.34;;;18.29;45.53
40838;BME280;29632;49.168;9.848;2023-04-28T11:26:15;96443.88;;;18.30;45.62
40838;BME280;29632;49.168;9.848;2023-04-28T11:28:55;96441.03;;;18.32;45.84
40838;BME280;29632;49.168;9.848;2023-04-28T11:31:23;96445.47;;;18.31;45.72
40838;BME280;29632;49.168;9.848;2023-04-28T11:33:53;96438.59;;;18.30;45.85
40838;BME280;29632;49.168;9.848;2023-04-28T11:36:30;96447.31;;;18.30;46.13
40838;BME280;29632;49.168;9.848;2023-04-28T11:38:58;96446.31;;;18.32;46.04
40838;BME280;29632;49.168;9.848;2023-04-28T11:41:24;96448.53;;;18.35;46.09
40838;BME280;29632;49.168;9.848;2023-04-28T11:43:50;96442.66;;;18.39;46.00
40838;BME280;29632;49.168;9.848;2023-04-28T11:46:17;96447.16;;;18.45;46.04
40838;BME280;29632;49.168;9.848;2023-04-28T11:48:43;96445.72;;;18.49;46.13
40838;BME280;29632;49.168;9.848;2023-04-28T11:51:09;96445.91;;;18.48;45.99
40838;BME280;29632;49.168;9.848;2023-04-28T11:53:44;96432.94;;;18.46;46.08
40838;BME280;29632;49.168;9.848;2023-04-28T11:56:09;96430.91;;;18.48;46.01
40838;BME280;29632;49.168;9.848;2023-04-28T11:58:36;96425.22;;;18.52;46.14
40838;BME280;29632;49.168;9.848;2023-04-28T12:01:08;96428.06;;;18.57;46.12
40838;BME280;29632;49.168;9.848;2023-04-28T12:03:46;96424.63;;;18.56;46.35
40838;BME280;29632;49.168;9.848;2023-04-28T12:06:18;96423.41;;;18.59;46.00
40838;BME280;29632;49.168;9.848;2023-04-28T12:08:44;96429.06;;;18.62;45.93
40838;BME280;29632;49.168;9.848;2023-04-28T12:11:13;96431.50;;;18.64;46.53
40838;BME280;29632;49.168;9.848;2023-04-28T12:13:40;96441.66;;;18.67;46.27
40838;BME280;29632;49.168;9.848;2023-04-28T12:16:06;96436.78;;;18.71;46.05
40838;BME280;29632;49.168;9.848;2023-04-28T12:18:36;96432.72;;;18.75;46.04
40838;BME280;29632;49.168;9.848;2023-04-28T12:21:02;96426.25;;;18.77;46.28
40838;BME280;29632;49.168;9.848;2023-04-28T12:23:32;96429.28;;;18.81;46.34
40838;BME280;29632;49.168;9.848;2023-04-28T12:25:58;96439.03;;;18.80;46.33
40838;BME280;29632;49.168;9.848;2023-04-28T12:28:38;96427.88;;;18.85;46.43
40838;BME280;29632;49.168;9.848;2023-04-28T12:31:05;96431.94;;;18.88;46.25
40838;BME280;29632;49.168;9.848;2023-04-28T12:33:32;96438.63;;;18.90;46.38
40838;BME280;29632;49.168;9.848;2023-04-28T12:36:02;96445.53;;;18.91;46.15
40838;BME280;29632;49.168;9.848;2023-04-28T12:38:28;96454.47;;;18.90;46.35
40838;BME280;29632;49.168;9.848;2023-04-28T12:40:54;96456.69;;;18.93;46.54
40838;BME280;29632;49.168;9.848;2023-04-28T12:43:20;96456.09;;;18.98;46.39
40838;BME280;29632;49.168;9.848;2023-04-28T12:45:51;96456.09;;;18.98;46.42
40838;BME280;29632;49.168;9.848;2023-04-28T12:48:17;96450.81;;;18.98;46.44
40838;BME280;29632;49.168;9.848;2023-04-28T12:50:43;96449.19;;;18.97;46.50
40838;BME280;29632;49.168;9.848;2023-04-28T12:53:09;96449.59;;;19.00;46.49
40838;BME280;29632;49.168;9.848;2023-04-28T12:55:35;96445.50;;;19.04;46.53
40838;BME280;29632;49.168;9.848;2023-04-28T12:58:03;96453.22;;;19.06;46.60
40838;BME280;29632;49.168;9.848;2023-04-28T13:00:29;96447.53;;;19.09;46.69
40838;BME280;29632;49.168;9.848;2023-04-28T13:02:56;96451.81;;;19.10;46.56
40838;BME280;29632;49.168;9.848;2023-04-28T13:05:21;96454.44;;;19.10;46.73
40838;BME280;29632;49.168;9.848;2023-04-28T13:07:47;96453.84;;;19.08;46.47
40838;BME280;29632;49.168;9.848;2023-04-28T13:10:15;96453.63;;;19.10;46.49
40838;BME280;29632;49.168;9.848;2023-04-28T13:12:41;96447.53;;;19.09;46.65
40838;BME280;29632;49.168;9.848;2023-04-28T13:15:07;96447.16;;;19.05;46.91
40838;BME280;29632;49.168;9.848;2023-04-28T13:17:33;96449.97;;;19.04;46.94
40838;BME280;29632;49.168;9.848;2023-04-28T13:19:59;96445.50;;;19.04;46.99
40838;BME280;29632;49.168;9.848;2023-04-28T13:22:26;96445.50;;;19.04;46.94
40838;BME280;29632;49.168;9.848;2023-04-28T13:24:51;96448.97;;;19.05;47.04
40838;BME280;29632;49.168;9.848;2023-04-28T13:27:17;96447.94;;;19.06;46.91